Time;durP1;ratioP1;P1;durP2;ratioP2;P2;SDS_P1;SDS_P2;PMS_P1;PMS_P2;Temp;Humidity;BMP_temperature;BMP_pressure;BME280_temperature;BME280_humidity;BME280_pressure;Samples;Min_cycle;Max_cycle;Signal;HPM_P1;HPM_P2
2021/12/15 00:02:34;;;;;;;19.05;6.75;;;5.20;71.10;;;;;;6265577;28;20057;-67
2021/12/15 00:05:40;;;;;;;19.05;6.40;;;5.20;71.00;;;;;;6249899;28;20458;-67
2021/12/15 00:08:46;;;;;;;11.35;5.30;;;5.20;70.80;;;;;;6232522;28;20332;-69
2021/12/15 00:11:47;;;;;;;12.10;5.15;;;5.30;70.90;;;;;;6247256;28;20108;-67
2021/12/15 00:14:50;;;;;;;10.05;4.68;;;5.30;70.90;;;;;;6248467;28;20037;-67
2021/12/15 00:17:51;;;;;;;16.77;6.53;;;5.30;70.80;;;;;;6257464;28;20033;-67
2021/12/15 00:20:53;;;;;;;18.52;6.82;;;5.30;70.70;;;;;;6273997;28;20048;-67
2021/12/15 00:23:54;;;;;;;15.95;6.72;;;5.30;70.70;;;;;;6271873;28;20458;-67
2021/12/15 00:26:56;;;;;;;13.13;6.05;;;5.30;70.70;;;;;;6274194;28;20048;-68
2021/12/15 00:29:57;;;;;;;13.63;6.03;;;5.30;70.70;;;;;;6272799;28;20473;-68
2021/12/15 00:32:59;;;;;;;12.57;5.55;;;5.30;70.70;;;;;;6243510;28;20049;-67
2021/12/15 00:36:00;;;;;;;14.43;5.78;;;5.30;70.70;;;;;;6248107;28;20037;-68
2021/12/15 00:39:06;;;;;;;11.07;4.47;;;5.30;70.50;;;;;;6254701;28;20053;-67
2021/12/15 00:42:07;;;;;;;8.60;5.22;;;5.20;70.20;;;;;;6248668;28;20414;-67
2021/12/15 00:45:12;;;;;;;9.57;5.43;;;5.10;70.20;;;;;;6248776;28;20045;-67
2021/12/15 00:48:14;;;;;;;15.05;6.18;;;5.10;70.30;;;;;;6259784;28;20051;-67
2021/12/15 00:51:16;;;;;;;19.40;5.88;;;5.00;70.30;;;;;;6273794;28;20047;-67
2021/12/15 00:54:17;;;;;;;13.32;5.20;;;4.90;70.40;;;;;;6272389;28;20033;-69
2021/12/15 00:57:19;;;;;;;12.90;5.18;;;4.90;70.60;;;;;;6272408;28;20078;-69
2021/12/15 01:00:33;;;;;;;15.48;5.60;;;4.80;71.50;;;;;;6272290;28;20037;-67
2021/12/15 01:03:35;;;;;;;12.95;5.43;;;4.80;70.80;;;;;;6255906;28;20498;-68
2021/12/15 01:06:38;;;;;;;14.85;4.95;;;4.80;70.90;;;;;;6230948;28;20029;-67
2021/12/15 01:09:47;;;;;;;10.88;4.90;;;4.80;71.00;;;;;;6247247;28;20037;-67
2021/12/15 01:19:53;;;;;;;8.57;4.43;;;4.80;71.30;;;;;;6220342;28;20037;-67
2021/12/15 01:22:57;;;;;;;13.95;5.30;;;4.80;71.30;;;;;;6214823;28;20049;-67
2021/12/15 01:26:11;;;;;;;15.23;5.55;;;4.90;71.30;;;;;;6221324;28;20030;-68
2021/12/15 01:29:12;;;;;;;9.82;4.75;;;4.90;71.30;;;;;;6193761;28;20341;-67
2021/12/15 01:32:14;;;;;;;11.40;5.10;;;4.90;71.30;;;;;;6182767;28;20026;-68
2021/12/15 01:35:16;;;;;;;11.05;3.55;;;4.90;71.30;;;;;;6220747;28;20042;-67
2021/12/15 01:38:21;;;;;;;21.08;6.22;;;4.90;71.20;;;;;;6204607;28;20447;-67
2021/12/15 01:41:23;;;;;;;9.85;4.43;;;4.90;71.10;;;;;;6221213;28;20161;-68
2021/12/15 01:47:26;;;;;;;8.75;4.38;;;4.80;71.30;;;;;;6220253;28;20030;-67
2021/12/15 01:50:28;;;;;;;15.85;4.43;;;4.80;71.40;;;;;;6221052;28;20033;-67
2021/12/15 01:53:31;;;;;;;13.25;5.70;;;4.80;71.60;;;;;;6239390;28;20343;-68
2021/12/15 01:56:33;;;;;;;11.98;5.32;;;4.80;71.70;;;;;;6246521;28;20125;-67
2021/12/15 01:59:34;;;;;;;9.20;4.63;;;4.80;71.60;;;;;;6237098;28;20096;-68
2021/12/15 02:02:36;;;;;;;8.95;4.47;;;4.80;71.60;;;;;;6231286;28;20105;-67
2021/12/15 02:05:37;;;;;;;14.52;4.53;;;4.80;71.70;;;;;;6245917;28;20036;-68
2021/12/15 02:08:39;;;;;;;13.25;4.97;;;4.80;71.70;;;;;;6247464;28;20104;-68
2021/12/15 02:11:41;;;;;;;12.23;5.00;;;4.80;71.80;;;;;;6251082;28;20215;-68
2021/12/15 02:14:42;;;;;;;15.63;5.07;;;4.70;71.80;;;;;;6251361;28;20064;-68
2021/12/15 02:17:45;;;;;;;15.63;5.32;;;4.70;71.80;;;;;;6259051;28;20552;-68
2021/12/15 02:20:59;;;;;;;17.20;5.82;;;4.70;72.00;;;;;;6266997;28;20048;-68
2021/12/15 02:24:01;;;;;;;10.85;5.15;;;4.70;72.20;;;;;;6251065;28;20045;-68
2021/12/15 02:27:04;;;;;;;13.48;4.78;;;4.80;72.30;;;;;;6253591;28;20080;-68
2021/12/15 02:30:21;;;;;;;13.27;3.78;;;4.80;72.30;;;;;;6254062;28;20102;-68
2021/12/15 02:33:44;;;;;;;16.63;5.97;;;4.80;72.20;;;;;;6261130;28;20060;-68
2021/12/15 02:40:11;;;;;;;17.50;5.32;;;4.80;72.10;;;;;;6251772;28;20155;-68
2021/12/15 02:43:13;;;;;;;10.70;4.78;;;4.80;72.10;;;;;;6227488;28;20034;-68
2021/12/15 02:46:15;;;;;;;8.10;4.93;;;4.70;72.00;;;;;;6227212;28;20034;-68
2021/12/15 02:49:21;;;;;;;11.98;4.63;;;4.70;72.10;;;;;;6246813;28;20042;-68
2021/12/15 02:52:22;;;;;;;7.75;3.80;;;4.70;72.00;;;;;;6276532;28;20423;-68
2021/12/15 02:55:24;;;;;;;9.05;4.07;;;4.70;72.80;;;;;;6276471;28;20071;-68
2021/12/15 02:58:32;;;;;;;12.63;4.78;;;4.70;71.90;;;;;;6277001;28;20462;-68
2021/12/15 03:05:11;;;;;;;6.93;3.28;;;4.70;72.10;;;;;;6226505;28;20176;-67
2021/12/15 03:08:45;;;;;;;8.25;4.20;;;4.70;72.00;;;;;;6228141;28;20049;-68
2021/12/15 03:18:40;;;;;;;15.52;5.38;;;4.70;72.10;;;;;;6208731;28;20038;-68
2021/12/15 03:21:43;;;;;;;12.40;4.38;;;4.70;72.00;;;;;;6193728;28;20049;-68
2021/12/15 03:24:45;;;;;;;11.88;4.68;;;4.60;72.00;;;;;;6220736;28;20045;-68
2021/12/15 03:38:07;;;;;;;6.10;3.25;;;4.70;72.20;;;;;;6153791;28;20034;-69
2021/12/15 03:41:10;;;;;;;8.52;3.35;;;4.70;72.20;;;;;;6172937;28;20065;-68
2021/12/15 03:44:11;;;;;;;19.23;5.13;;;4.70;72.10;;;;;;6172963;28;20353;-68
2021/12/15 03:47:21;;;;;;;16.70;6.25;;;4.70;71.90;;;;;;6174721;28;20347;-68
2021/12/15 03:50:25;;;;;;;13.63;5.53;;;4.70;71.80;;;;;;6195056;28;20034;-68
2021/12/15 03:53:28;;;;;;;11.85;4.40;;;4.60;71.70;;;;;;6182019;28;20038;-68
2021/12/15 03:56:29;;;;;;;9.73;3.97;;;4.60;71.90;;;;;;6204611;28;20041;-68
2021/12/15 03:59:33;;;;;;;8.98;4.63;;;4.50;71.90;;;;;;6181236;28;20034;-68
2021/12/15 04:02:34;;;;;;;14.73;5.53;;;4.50;72.10;;;;;;6159174;28;20104;-68
2021/12/15 04:05:35;;;;;;;9.30;4.07;;;4.50;72.40;;;;;;6179985;28;20100;-68
2021/12/15 04:08:40;;;;;;;12.60;4.45;;;4.60;72.50;;;;;;6190364;28;20037;-68
2021/12/15 04:11:41;;;;;;;10.27;5.30;;;4.60;72.40;;;;;;6224198;28;20030;-68
2021/12/15 04:14:45;;;;;;;10.43;5.38;;;4.60;72.30;;;;;;6248568;28;20068;-68
2021/12/15 04:17:48;;;;;;;11.48;5.57;;;4.70;72.40;;;;;;6254465;28;20040;-68
2021/12/15 04:20:50;;;;;;;12.57;4.53;;;4.70;72.40;;;;;;6255426;28;20052;-68
2021/12/15 04:23:53;;;;;;;14.73;4.43;;;4.80;72.40;;;;;;6270964;28;20450;-68
2021/12/15 04:26:59;;;;;;;14.10;6.60;;;4.80;72.30;;;;;;6273502;28;20111;-69
2021/12/15 04:30:00;;;;;;;24.35;8.57;;;4.90;72.10;;;;;;6272893;28;20480;-68
2021/12/15 04:33:07;;;;;;;42.05;7.85;;;4.90;71.90;;;;;;6235455;28;20038;-68
2021/12/15 04:36:12;;;;;;;14.70;4.38;;;4.90;71.70;;;;;;6247600;28;20029;-68
2021/12/15 04:39:16;;;;;;;15.35;6.05;;;4.90;71.50;;;;;;6247994;28;20040;-68
2021/12/15 04:42:19;;;;;;;9.80;4.93;;;4.80;71.60;;;;;;6246893;28;20041;-68
2021/12/15 04:45:22;;;;;;;12.52;6.03;;;4.80;71.80;;;;;;6247862;28;20175;-68
2021/12/15 04:48:23;;;;;;;17.30;6.78;;;4.80;71.70;;;;;;6259598;28;20040;-68
2021/12/15 04:51:24;;;;;;;17.48;7.13;;;4.80;71.70;;;;;;6255073;28;20397;-68
2021/12/15 04:54:27;;;;;;;16.60;6.70;;;4.80;71.70;;;;;;6272477;28;20421;-69
2021/12/15 04:57:28;;;;;;;10.93;5.05;;;4.80;71.70;;;;;;6271269;28;20094;-68
2021/12/15 05:00:33;;;;;;;15.25;5.22;;;4.90;71.80;;;;;;6272325;28;20044;-68
2021/12/15 05:03:34;;;;;;;8.18;4.50;;;4.90;71.80;;;;;;6243674;28;20057;-68
2021/12/15 05:06:35;;;;;;;19.70;4.63;;;4.90;71.70;;;;;;6261161;28;20051;-67
2021/12/15 05:09:38;;;;;;;12.55;5.03;;;4.90;71.60;;;;;;6246121;28;20072;-67
2021/12/15 05:12:39;;;;;;;6.80;3.58;;;4.90;71.60;;;;;;6246446;28;20406;-67
2021/12/15 05:15:41;;;;;;;12.48;5.65;;;4.90;71.40;;;;;;6222694;28;20072;-67
2021/12/15 05:18:43;;;;;;;11.13;4.03;;;4.90;71.30;;;;;;6242957;28;20048;-67
2021/12/15 05:21:44;;;;;;;14.15;5.13;;;4.80;71.30;;;;;;6272477;28;20419;-68
2021/12/15 05:24:45;;;;;;;11.52;4.35;;;4.70;71.20;;;;;;6272909;28;20131;-67
2021/12/15 05:27:46;;;;;;;8.38;4.35;;;4.70;71.60;;;;;;6271967;28;20048;-68
2021/12/15 05:30:47;;;;;;;5.55;2.72;;;4.60;71.20;;;;;;6248467;28;20036;-68
2021/12/15 05:33:48;;;;;;;15.98;4.88;;;4.60;71.40;;;;;;6244997;28;20139;-68
2021/12/15 05:36:52;;;;;;;10.85;3.45;;;4.60;72.30;;;;;;6248074;28;20105;-67
2021/12/15 05:39:54;;;;;;;6.00;2.90;;;4.60;71.50;;;;;;6248180;28;20120;-68
2021/12/15 05:42:57;;;;;;;11.57;3.05;;;4.50;71.30;;;;;;6247928;28;20044;-68
2021/12/15 05:45:58;;;;;;;13.07;4.35;;;4.50;71.40;;;;;;6246923;28;20060;-68
2021/12/15 05:48:59;;;;;;;10.45;4.80;;;4.40;71.60;;;;;;6263184;28;20037;-67
2021/12/15 05:52:00;;;;;;;16.60;4.70;;;4.40;71.70;;;;;;6254522;28;20139;-69
2021/12/15 05:55:03;;;;;;;14.35;5.20;;;4.40;71.90;;;;;;6246264;28;20439;-69
2021/12/15 05:58:05;;;;;;;14.38;4.78;;;4.40;71.90;;;;;;6247356;28;20029;-68
2021/12/15 06:01:06;;;;;;;8.40;3.92;;;4.40;72.10;;;;;;6225128;28;20056;-68
2021/12/15 06:04:08;;;;;;;8.77;4.28;;;4.40;72.90;;;;;;6240475;28;20037;-67
2021/12/15 06:07:09;;;;;;;20.30;6.50;;;4.40;72.10;;;;;;6247300;28;20328;-67
2021/12/15 06:10:14;;;;;;;19.50;4.75;;;4.40;72.10;;;;;;6247401;28;20041;-67
2021/12/15 06:13:15;;;;;;;14.68;5.65;;;4.40;72.20;;;;;;6246856;28;20028;-67
2021/12/15 06:16:18;;;;;;;8.40;3.55;;;4.30;72.10;;;;;;6247693;28;20022;-67
2021/12/15 06:19:19;;;;;;;8.88;3.15;;;4.30;72.30;;;;;;6264371;28;20033;-67
2021/12/15 06:22:25;;;;;;;9.13;3.63;;;4.30;72.30;;;;;;6271381;28;20036;-67
2021/12/15 06:25:28;;;;;;;9.63;3.72;;;4.30;72.30;;;;;;6271946;28;20033;-68
2021/12/15 06:28:30;;;;;;;7.25;4.40;;;4.30;72.20;;;;;;6277276;28;20477;-67
2021/12/15 06:31:31;;;;;;;6.63;3.53;;;4.40;72.30;;;;;;6253891;28;20153;-67
2021/12/15 06:34:32;;;;;;;7.95;3.85;;;4.40;72.10;;;;;;6247235;28;20046;-67
2021/12/15 06:37:34;;;;;;;12.98;5.00;;;4.40;72.20;;;;;;6247082;28;20041;-68
2021/12/15 06:40:35;;;;;;;16.23;6.22;;;4.40;72.20;;;;;;6245972;28;20458;-67
2021/12/15 06:43:37;;;;;;;11.45;4.90;;;4.40;72.20;;;;;;6245900;28;20030;-67
2021/12/15 06:59:46;;;;;;;10.10;4.13;;;4.50;72.30;;;;;;6275019;28;20053;-68
2021/12/15 07:02:48;;;;;;;9.40;4.47;;;4.50;72.10;;;;;;6263864;28;20022;-68
2021/12/15 07:05:50;;;;;;;7.03;3.40;;;4.50;71.80;;;;;;6215025;28;20044;-68
2021/12/15 07:08:51;;;;;;;8.23;4.03;;;4.50;71.80;;;;;;6247999;28;20133;-67
2021/12/15 07:11:53;;;;;;;14.50;5.30;;;4.40;71.70;;;;;;6248285;28;20466;-68
2021/12/15 07:14:54;;;;;;;12.75;4.60;;;4.40;71.90;;;;;;6231218;28;20034;-68
2021/12/15 07:18:02;;;;;;;11.13;5.40;;;4.40;72.00;;;;;;6254663;28;20373;-68
2021/12/15 07:21:10;;;;;;;13.35;4.38;;;4.40;72.20;;;;;;6275153;28;20124;-68
2021/12/15 07:24:11;;;;;;;14.23;6.22;;;4.50;72.20;;;;;;6274186;28;20128;-68
2021/12/15 07:27:12;;;;;;;15.10;6.43;;;4.50;72.10;;;;;;6274943;28;20412;-68
2021/12/15 07:30:13;;;;;;;6.20;3.72;;;4.50;72.00;;;;;;6255723;28;20038;-68
2021/12/15 07:33:14;;;;;;;12.55;4.63;;;4.60;72.00;;;;;;6248758;28;20044;-68
2021/12/15 07:36:16;;;;;;;13.27;4.32;;;4.60;71.80;;;;;;6249496;28;20034;-66
2021/12/15 07:39:17;;;;;;;7.63;4.35;;;4.60;71.60;;;;;;6250652;28;20045;-68
2021/12/15 07:42:18;;;;;;;11.93;5.65;;;4.60;71.60;;;;;;6249236;28;20398;-68
2021/12/15 07:45:22;;;;;;;14.45;6.43;;;4.60;72.50;;;;;;6250283;28;20421;-68
2021/12/15 07:48:25;;;;;;;12.23;5.18;;;4.60;71.70;;;;;;6258542;28;20132;-68
2021/12/15 07:51:26;;;;;;;12.20;5.97;;;4.60;71.80;;;;;;6251904;28;20124;-68
2021/12/15 07:54:29;;;;;;;13.98;5.25;;;4.70;72.00;;;;;;6246444;28;20172;-69
2021/12/15 07:57:30;;;;;;;11.30;5.03;;;4.80;72.00;;;;;;6250319;28;20481;-68
2021/12/15 08:00:32;;;;;;;16.77;6.43;;;4.80;71.80;;;;;;6271924;28;20070;-67
2021/12/15 08:03:39;;;;;;;17.45;6.80;;;4.90;71.60;;;;;;6257161;28;20035;-67
2021/12/15 08:06:40;;;;;;;14.75;5.75;;;4.90;71.40;;;;;;6248925;28;20343;-68
2021/12/15 08:09:42;;;;;;;10.85;5.25;;;5.00;71.30;;;;;;6262998;28;20033;-69
2021/12/15 08:12:46;;;;;;;14.25;6.57;;;5.00;71.20;;;;;;6274490;28;20116;-68
2021/12/15 08:15:47;;;;;;;9.80;4.38;;;5.00;71.10;;;;;;6272966;28;20029;-68
2021/12/15 08:18:48;;;;;;;9.25;4.85;;;5.10;71.00;;;;;;6271695;28;20056;-69
2021/12/15 08:21:49;;;;;;;12.38;6.18;;;5.10;70.90;;;;;;6262407;28;20371;-68
2021/12/15 08:24:50;;;;;;;20.92;7.78;;;5.20;70.90;;;;;;6249430;28;20455;-69
2021/12/15 08:27:52;;;;;;;21.75;8.82;;;5.20;70.90;;;;;;6249257;28;20402;-67
2021/12/15 08:30:54;;;;;;;24.63;8.43;;;5.30;70.70;;;;;;6272570;28;20520;-68
2021/12/15 08:33:55;;;;;;;16.10;6.80;;;5.30;70.60;;;;;;6254610;28;20099;-68
2021/12/15 08:36:56;;;;;;;21.15;7.03;;;5.30;70.40;;;;;;6247371;28;20078;-68
2021/12/15 08:39:57;;;;;;;16.90;7.65;;;5.40;70.20;;;;;;6248257;28;20034;-68
2021/12/15 08:42:59;;;;;;;22.38;8.70;;;5.40;70.00;;;;;;6248811;28;20105;-68
2021/12/15 08:46:08;;;;;;;18.02;7.60;;;5.30;69.90;;;;;;6247185;28;20124;-68
2021/12/15 08:49:13;;;;;;;16.38;6.90;;;5.30;70.10;;;;;;6264169;28;20124;-68
2021/12/15 08:52:14;;;;;;;18.33;7.70;;;5.40;70.10;;;;;;6273047;28;20036;-67
2021/12/15 08:55:15;;;;;;;21.77;7.60;;;5.40;70.00;;;;;;6271506;28;20033;-70
2021/12/15 08:58:19;;;;;;;37.35;12.55;;;5.40;69.90;;;;;;6272151;28;20490;-68
2021/12/15 09:01:21;;;;;;;37.42;14.35;;;5.50;69.80;;;;;;6263760;28;20045;-68
2021/12/15 09:04:22;;;;;;;31.10;12.18;;;5.50;69.60;;;;;;6248144;28;20029;-68
2021/12/15 09:07:23;;;;;;;32.47;10.88;;;5.40;69.50;;;;;;6270317;28;20043;-69
2021/12/15 09:10:26;;;;;;;34.33;11.75;;;5.40;69.40;;;;;;6255351;28;20033;-68
2021/12/15 09:13:30;;;;;;;21.58;9.07;;;5.40;69.60;;;;;;6271286;28;20047;-68
2021/12/15 09:16:32;;;;;;;23.65;8.65;;;5.40;69.90;;;;;;6247275;28;20403;-68
2021/12/15 09:19:34;;;;;;;37.47;10.15;;;5.40;69.80;;;;;;6248092;28;20107;-67
2021/12/15 09:22:38;;;;;;;26.70;10.43;;;5.40;69.50;;;;;;6247376;28;20112;-68
2021/12/15 09:25:39;;;;;;;32.95;11.43;;;5.50;69.60;;;;;;6246768;28;20405;-68
2021/12/15 09:28:40;;;;;;;23.80;10.32;;;5.50;69.60;;;;;;6270977;28;20032;-68
2021/12/15 09:31:41;;;;;;;33.25;13.27;;;5.50;69.60;;;;;;6271386;28;20029;-68
2021/12/15 09:34:43;;;;;;;32.60;10.70;;;5.60;69.60;;;;;;6246431;28;20061;-69
2021/12/15 09:37:46;;;;;;;36.78;13.25;;;5.60;69.50;;;;;;6260013;28;20347;-70
2021/12/15 09:40:50;;;;;;;62.05;12.00;;;5.70;69.40;;;;;;6271739;28;20037;-69
2021/12/15 09:43:54;;;;;;;19.27;9.18;;;5.70;69.20;;;;;;6270937;28;20041;-69
2021/12/15 09:47:15;;;;;;;24.42;9.73;;;5.80;69.20;;;;;;6272518;28;20120;-68
2021/12/15 09:57:21;;;;;;;19.33;8.38;;;5.90;68.60;;;;;;6246842;28;20092;-68
2021/12/15 10:03:55;;;;;;;18.15;7.32;;;5.90;68.20;;;;;;6245654;28;20121;-68
2021/12/15 10:17:33;;;;;;;21.92;11.25;;;6.00;67.70;;;;;;6235482;28;20038;-68
2021/12/15 10:20:39;;;;;;;32.90;14.10;;;6.00;67.70;;;;;;6268368;28;20366;-68
2021/12/15 10:23:45;;;;;;;31.98;11.88;;;6.00;67.50;;;;;;6245014;28;20033;-68
2021/12/15 10:26:58;;;;;;;24.73;8.82;;;6.00;67.50;;;;;;6270633;28;20541;-69
2021/12/15 10:30:16;;;;;;;27.67;12.80;;;6.00;67.30;;;;;;6243545;28;20033;-69
2021/12/15 10:33:27;;;;;;;28.35;10.52;;;5.90;67.20;;;;;;6246548;28;20041;-68
2021/12/15 10:36:33;;;;;;;24.73;9.02;;;6.00;67.30;;;;;;6249216;28;20033;-68
2021/12/15 10:39:34;;;;;;;27.92;12.07;;;6.00;67.30;;;;;;6248424;28;20125;-68
2021/12/15 10:42:35;;;;;;;29.90;11.90;;;6.10;67.20;;;;;;6232420;28;20041;-68
2021/12/15 10:45:41;;;;;;;45.42;17.95;;;6.10;66.90;;;;;;6249054;28;20037;-68
2021/12/15 10:48:50;;;;;;;35.67;14.63;;;6.10;66.80;;;;;;6256478;28;20533;-70
2021/12/15 10:51:51;;;;;;;38.92;13.90;;;6.20;66.80;;;;;;6272667;28;20037;-69
2021/12/15 10:54:56;;;;;;;35.72;14.82;;;6.20;66.50;;;;;;6273318;28;20056;-68
2021/12/15 10:57:58;;;;;;;44.15;15.07;;;6.20;66.50;;;;;;6256795;28;20067;-69
2021/12/15 11:01:02;;;;;;;31.55;13.35;;;6.30;66.60;;;;;;6265754;28;20045;-68
2021/12/15 11:04:38;;;;;;;26.55;9.95;;;6.30;66.40;;;;;;6248366;28;20040;-68
2021/12/15 11:07:59;;;;;;;52.15;22.20;;;6.40;66.30;;;;;;6229505;28;20112;-68
2021/12/15 11:11:00;;;;;;;61.42;21.20;;;6.40;66.30;;;;;;6222384;28;20121;-69
2021/12/15 11:14:22;;;;;;;58.03;21.85;;;6.40;66.30;;;;;;6220942;28;20038;-68
2021/12/15 11:17:32;;;;;;;45.13;18.17;;;6.50;66.40;;;;;;6220422;28;20083;-69
2021/12/15 11:20:43;;;;;;;49.30;17.80;;;6.60;66.40;;;;;;6267261;28;20041;-68
2021/12/15 11:23:45;;;;;;;48.60;16.58;;;6.70;66.20;;;;;;6273022;28;20037;-68
2021/12/15 11:26:46;;;;;;;43.40;16.67;;;6.80;65.80;;;;;;6272825;28;20110;-69
2021/12/15 11:29:47;;;;;;;49.28;19.65;;;6.80;65.80;;;;;;6238159;28;20034;-68
2021/12/15 11:32:51;;;;;;;46.38;17.00;;;6.90;65.90;;;;;;6229562;28;20052;-68
2021/12/15 11:36:03;;;;;;;39.08;16.48;;;7.00;65.90;;;;;;6246485;28;20050;-67
2021/12/15 11:39:09;;;;;;;41.70;15.52;;;7.20;65.80;;;;;;6229959;28;20041;-70
2021/12/15 11:42:10;;;;;;;42.47;16.13;;;7.30;65.60;;;;;;6247922;28;20044;-69
2021/12/15 11:45:13;;;;;;;56.30;15.10;;;7.40;65.30;;;;;;6244901;28;20447;-69
2021/12/15 11:48:19;;;;;;;46.38;17.60;;;7.40;64.90;;;;;;6251702;28;20074;-68
2021/12/15 11:51:46;;;;;;;52.10;19.70;;;7.50;64.90;;;;;;6273326;28;20029;-68
2021/12/15 11:54:49;;;;;;;40.78;14.90;;;7.50;64.60;;;;;;6244302;28;20199;-69
2021/12/15 11:57:51;;;;;;;35.20;14.02;;;7.50;64.40;;;;;;6247102;28;20068;-70
2021/12/15 12:00:52;;;;;;;47.25;17.45;;;7.50;64.40;;;;;;6271296;28;20040;-69
2021/12/15 12:04:19;;;;;;;60.50;22.33;;;7.50;64.30;;;;;;6252729;28;20067;-69
2021/12/15 12:07:23;;;;;;;49.72;14.77;;;7.40;64.00;;;;;;6252737;28;20033;-69
2021/12/15 12:10:48;;;;;;;39.00;17.25;;;7.40;64.30;;;;;;6269803;28;20037;-69
2021/12/15 12:13:51;;;;;;;39.80;15.80;;;7.40;64.50;;;;;;6270249;28;20025;-69
2021/12/15 12:16:52;;;;;;;35.25;13.90;;;7.40;64.50;;;;;;6270283;28;20036;-68
2021/12/15 12:20:13;;;;;;;42.67;16.90;;;7.40;64.30;;;;;;6247584;28;20049;-68
2021/12/15 12:23:21;;;;;;;44.30;17.23;;;7.40;64.20;;;;;;6246493;28;20040;-68
2021/12/15 12:26:29;;;;;;;48.42;16.80;;;7.30;64.30;;;;;;6244959;28;20039;-69
2021/12/15 12:29:30;;;;;;;52.72;20.83;;;7.30;64.50;;;;;;6222710;28;20030;-68
2021/12/15 12:32:31;;;;;;;49.40;18.67;;;7.30;64.60;;;;;;6227120;28;20111;-69
2021/12/15 12:35:35;;;;;;;38.20;16.25;;;7.30;64.50;;;;;;6244606;28;20667;-69
2021/12/15 12:38:40;;;;;;;38.63;14.23;;;7.30;64.90;;;;;;6264292;28;20499;-68
2021/12/15 12:41:45;;;;;;;37.28;10.80;;;7.30;65.10;;;;;;6271144;28;20466;-70
2021/12/15 12:44:50;;;;;;;43.78;14.23;;;7.40;65.00;;;;;;6270154;28;20106;-67
2021/12/15 12:48:17;;;;;;;42.95;15.07;;;7.50;65.10;;;;;;6271038;28;20048;-68
2021/12/15 13:01:20;;;;;;;32.90;10.75;;;7.80;64.30;;;;;;6248258;28;20126;-68
2021/12/15 13:04:21;;;;;;;24.75;10.93;;;7.80;64.40;;;;;;6250163;28;20295;-68
2021/12/15 13:07:50;;;;;;;44.20;14.75;;;7.70;64.50;;;;;;6257467;28;20034;-70
2021/12/15 13:11:05;;;;;;;21.27;8.23;;;7.80;64.50;;;;;;6242285;28;20057;-68
2021/12/15 13:14:08;;;;;;;27.80;11.88;;;7.80;64.40;;;;;;6244109;28;20106;-68
2021/12/15 13:17:24;;;;;;;27.50;8.75;;;7.90;64.40;;;;;;6243658;28;20087;-69
2021/12/15 13:20:30;;;;;;;23.35;8.88;;;7.90;64.30;;;;;;6243144;28;20044;-69
2021/12/15 13:23:55;;;;;;;30.20;9.88;;;7.90;64.20;;;;;;6242698;28;20037;-69
2021/12/15 13:30:30;;;;;;;21.95;9.32;;;7.80;64.10;;;;;;6263792;28;20445;-68
2021/12/15 13:33:31;;;;;;;40.50;12.18;;;7.80;64.30;;;;;;6232090;28;20029;-69
2021/12/15 13:36:38;;;;;;;28.02;10.70;;;7.80;64.40;;;;;;6231049;28;20120;-69
2021/12/15 13:39:48;;;;;;;23.92;8.52;;;7.80;64.60;;;;;;6268121;28;20437;-68
2021/12/15 13:43:02;;;;;;;28.83;9.30;;;7.90;64.60;;;;;;6272113;28;20449;-67
2021/12/15 13:46:06;;;;;;;29.73;10.82;;;7.90;64.40;;;;;;6250985;28;20438;-67
2021/12/15 13:49:09;;;;;;;27.20;10.40;;;7.90;64.40;;;;;;6266413;28;20358;-67
2021/12/15 13:52:31;;;;;;;31.63;9.57;;;7.90;64.40;;;;;;6268967;28;20055;-68
2021/12/15 13:55:38;;;;;;;28.27;10.25;;;8.00;64.20;;;;;;6264682;28;20322;-68
2021/12/15 13:58:39;;;;;;;28.77;9.40;;;8.00;64.20;;;;;;6235519;28;20042;-68
2021/12/15 14:01:40;;;;;;;26.15;11.05;;;8.00;64.20;;;;;;6260788;28;20379;-68
2021/12/15 14:04:49;;;;;;;30.48;10.57;;;8.00;64.20;;;;;;6223289;28;20037;-68
2021/12/15 14:08:01;;;;;;;33.70;10.63;;;8.00;64.10;;;;;;6202317;28;20406;-68
2021/12/15 14:11:11;;;;;;;25.35;9.68;;;8.00;64.20;;;;;;6241529;28;20120;-69
2021/12/15 14:14:23;;;;;;;30.52;10.75;;;7.90;64.20;;;;;;6244303;28;20033;-69
2021/12/15 14:17:24;;;;;;;24.52;10.00;;;7.90;64.30;;;;;;6227466;28;20033;-69
2021/12/15 14:20:27;;;;;;;30.08;11.77;;;7.90;64.40;;;;;;6244078;28;20474;-69
2021/12/15 14:23:33;;;;;;;32.33;11.55;;;7.90;64.50;;;;;;6244235;28;20338;-69
2021/12/15 14:26:36;;;;;;;32.67;10.52;;;8.00;64.70;;;;;;6250841;28;20370;-68
2021/12/15 14:29:37;;;;;;;32.17;11.05;;;8.00;64.40;;;;;;6259229;28;20037;-69
2021/12/15 14:32:38;;;;;;;31.35;11.05;;;8.00;64.50;;;;;;6260536;28;20029;-68
2021/12/15 14:35:39;;;;;;;32.20;12.07;;;8.00;64.40;;;;;;6243935;28;20512;-68
2021/12/15 14:38:42;;;;;;;45.83;13.43;;;8.00;64.60;;;;;;6265558;28;20079;-68
2021/12/15 14:41:55;;;;;;;34.90;12.80;;;8.00;64.60;;;;;;6252111;28;20386;-68
2021/12/15 14:45:00;;;;;;;30.42;11.45;;;8.00;64.70;;;;;;6268392;28;20350;-68
2021/12/15 14:48:00;;;;;;;36.28;11.82;;;8.00;64.80;;;;;;6252062;28;20061;-68
2021/12/15 14:51:01;;;;;;;31.23;11.63;;;8.00;64.80;;;;;;6264043;28;20633;-68
2021/12/15 14:54:03;;;;;;;28.65;11.60;;;8.00;64.80;;;;;;6245426;28;20046;-68
2021/12/15 14:57:14;;;;;;;25.20;9.73;;;8.00;64.90;;;;;;6242014;28;20107;-68
2021/12/15 15:00:20;;;;;;;36.58;12.65;;;8.00;64.90;;;;;;6264782;28;20051;-69
2021/12/15 15:03:21;;;;;;;25.77;11.35;;;8.00;65.00;;;;;;6228299;28;20113;-68
2021/12/15 15:06:27;;;;;;;32.00;12.45;;;8.00;65.00;;;;;;6224674;28;20471;-69
2021/12/15 15:09:33;;;;;;;32.90;11.05;;;8.00;65.10;;;;;;6267395;28;20355;-69
2021/12/15 15:12:37;;;;;;;30.85;12.02;;;8.00;65.00;;;;;;6268513;28;20072;-69
2021/12/15 15:15:44;;;;;;;37.58;12.70;;;8.00;65.10;;;;;;6269956;28;20051;-69
2021/12/15 15:18:46;;;;;;;32.13;12.43;;;8.00;65.20;;;;;;6270220;28;20123;-68
2021/12/15 15:21:47;;;;;;;37.00;14.63;;;8.00;65.30;;;;;;6254960;28;20041;-70
2021/12/15 15:24:49;;;;;;;37.60;13.98;;;8.00;65.30;;;;;;6256634;28;20124;-68
2021/12/15 15:27:53;;;;;;;38.53;13.65;;;8.00;65.30;;;;;;6272565;28;20033;-69
2021/12/15 15:30:58;;;;;;;38.47;12.88;;;7.90;65.30;;;;;;6230305;28;20523;-69
2021/12/15 15:33:59;;;;;;;32.13;12.40;;;7.90;65.50;;;;;;6237633;28;20053;-67
2021/12/15 15:37:10;;;;;;;38.03;13.70;;;7.90;65.50;;;;;;6249009;28;20041;-69
2021/12/15 15:40:37;;;;;;;38.08;14.13;;;7.90;65.50;;;;;;6239276;28;20034;-68
2021/12/15 15:43:43;;;;;;;40.10;13.35;;;7.80;65.60;;;;;;6221285;28;20147;-69
2021/12/15 15:46:45;;;;;;;41.75;15.65;;;7.80;65.70;;;;;;6222759;28;20056;-68
2021/12/15 15:49:49;;;;;;;34.30;12.98;;;7.70;65.90;;;;;;6257025;28;20110;-68
2021/12/15 15:52:53;;;;;;;29.65;11.30;;;7.70;66.10;;;;;;6271890;28;20048;-68
2021/12/15 15:56:03;;;;;;;38.30;12.32;;;7.60;66.10;;;;;;6271834;28;20037;-68
2021/12/15 15:59:07;;;;;;;37.42;12.90;;;7.70;66.20;;;;;;6273467;28;20374;-69
2021/12/15 16:02:09;;;;;;;36.05;12.80;;;7.70;66.30;;;;;;6268479;28;20143;-69
2021/12/15 16:05:12;;;;;;;37.53;13.77;;;7.70;66.30;;;;;;6247023;28;20049;-69
2021/12/15 16:08:14;;;;;;;36.70;14.60;;;7.60;66.20;;;;;;6239132;28;20091;-69
2021/12/15 16:11:20;;;;;;;39.95;14.35;;;7.60;66.30;;;;;;6247007;28;20052;-69
2021/12/15 16:14:22;;;;;;;45.95;13.30;;;7.60;66.40;;;;;;6269773;28;20029;-68
2021/12/15 16:17:37;;;;;;;34.03;13.85;;;7.50;66.50;;;;;;6271057;28;20041;-68
2021/12/15 16:24:09;;;;;;;36.03;13.48;;;7.30;66.90;;;;;;6268873;28;20094;-68
2021/12/15 16:27:10;;;;;;;35.00;12.50;;;7.40;67.20;;;;;;6268426;28;20357;-68
2021/12/15 16:30:13;;;;;;;46.40;15.43;;;7.30;67.20;;;;;;6267062;28;20025;-68
2021/12/15 16:33:17;;;;;;;35.60;14.48;;;7.30;67.20;;;;;;6228327;28;20065;-68
2021/12/15 16:36:22;;;;;;;41.63;13.82;;;7.20;67.40;;;;;;6220712;28;20124;-70
2021/12/15 16:39:28;;;;;;;32.53;12.30;;;7.20;67.60;;;;;;6218894;28;20073;-68
2021/12/15 16:42:28;;;;;;;43.58;12.43;;;7.20;67.70;;;;;;6221029;28;20037;-68
2021/12/15 16:45:30;;;;;;;38.60;12.10;;;7.20;67.60;;;;;;6218026;28;20437;-67
2021/12/15 16:48:34;;;;;;;40.72;13.73;;;7.10;67.70;;;;;;6231036;28;20056;-68
2021/12/15 16:51:41;;;;;;;42.53;13.38;;;7.10;67.90;;;;;;6251468;28;20466;-69
2021/12/15 16:54:47;;;;;;;37.75;13.63;;;7.10;68.10;;;;;;6268376;28;20033;-68
2021/12/15 16:57:51;;;;;;;34.13;12.55;;;7.10;67.90;;;;;;6264674;28;20087;-69
2021/12/15 17:00:52;;;;;;;38.97;11.90;;;7.10;68.00;;;;;;6267527;28;20098;-68
2021/12/15 17:03:57;;;;;;;43.20;17.42;;;7.10;68.20;;;;;;6250487;28;20462;-69
2021/12/15 17:07:03;;;;;;;43.38;13.48;;;7.10;68.30;;;;;;6243379;28;20044;-68
2021/12/15 17:10:11;;;;;;;37.95;11.45;;;7.10;68.30;;;;;;6245391;28;20447;-68
2021/12/15 17:13:14;;;;;;;;;;;7.20;68.30;;;;;;6245905;28;20451;-67
2021/12/15 17:16:25;;;;;;;26.85;10.57;;;7.20;68.10;;;;;;6254453;28;19913;-68
2021/12/15 17:19:29;;;;;;;33.40;13.93;;;7.20;67.90;;;;;;6267212;28;20056;-68
2021/12/15 17:22:46;;;;;;;44.83;14.20;;;7.30;68.20;;;;;;6269324;28;20119;-69